createdAt,value
2018-12-11T00:01:23.687Z,3.50
2018-12-11T00:03:51.973Z,3.50
2018-12-11T00:06:20.226Z,3.40
2018-12-11T00:08:48.516Z,3.10
2018-12-11T00:11:16.751Z,3.00
2018-12-11T00:13:44.986Z,3.00
2018-12-11T00:16:13.200Z,3.10
2018-12-11T00:18:41.413Z,3.10
2018-12-11T00:21:09.632Z,3.10
2018-12-11T00:23:37.857Z,3.20
2018-12-11T00:26:06.109Z,3.10
2018-12-11T00:28:34.405Z,3.20
2018-12-11T00:31:02.604Z,3.20
2018-12-11T00:33:30.828Z,3.20
2018-12-11T00:35:59.141Z,3.10
2018-12-11T00:38:27.366Z,2.90
2018-12-11T00:40:55.663Z,3.10
2018-12-11T00:43:23.864Z,3.10
2018-12-11T00:45:53.160Z,3.00
2018-12-11T00:48:21.405Z,3.00
2018-12-11T00:50:49.801Z,3.00
2018-12-11T01:00:48.842Z,3.10
2018-12-11T01:03:17.070Z,3.20
2018-12-11T01:05:45.289Z,3.20
2018-12-11T01:08:13.566Z,3.20
2018-12-11T01:10:41.875Z,3.00
2018-12-11T01:13:10.110Z,3.00
2018-12-11T01:15:38.402Z,3.00
2018-12-11T01:18:08.714Z,3.00
2018-12-11T01:20:36.933Z,2.90
2018-12-11T01:23:05.162Z,2.80
2018-12-11T01:25:33.435Z,2.80
2018-12-11T01:28:01.673Z,2.80
2018-12-11T01:30:29.989Z,2.90
2018-12-11T01:32:58.204Z,2.90
2018-12-11T01:35:26.432Z,2.90
2018-12-11T01:37:54.722Z,3.00
2018-12-11T01:40:23.123Z,2.90
2018-12-11T01:42:51.473Z,2.90
2018-12-11T01:45:19.756Z,2.80
2018-12-11T01:52:37.878Z,2.80
2018-12-11T01:55:06.402Z,2.90
2018-12-11T02:02:31.111Z,2.80
2018-12-11T02:04:59.659Z,2.90
2018-12-11T02:07:29.060Z,2.90
2018-12-11T02:09:57.395Z,2.90
2018-12-11T02:12:25.800Z,2.90
2018-12-11T02:14:54.156Z,2.90
2018-12-11T02:17:22.420Z,2.90
2018-12-11T02:19:50.857Z,3.10
2018-12-11T02:22:20.434Z,3.00
2018-12-11T02:24:48.975Z,3.20
2018-12-11T02:27:17.440Z,3.30
2018-12-11T02:29:46.773Z,3.20
2018-12-11T02:32:15.515Z,3.40
2018-12-11T02:34:43.980Z,3.40
2018-12-11T02:37:12.450Z,3.30
2018-12-11T02:39:40.989Z,3.40
2018-12-11T02:42:09.386Z,3.50
2018-12-11T02:44:37.897Z,3.50
2018-12-11T02:47:06.370Z,3.30
2018-12-11T02:49:34.780Z,3.30
2018-12-11T02:52:03.122Z,3.00
2018-12-11T02:54:32.027Z,3.20
2018-12-11T02:57:00.293Z,3.20
2018-12-11T02:59:35.003Z,3.10
2018-12-11T03:02:03.991Z,3.20
2018-12-11T03:09:28.362Z,3.20
2018-12-11T03:11:57.962Z,3.40
2018-12-11T03:14:26.229Z,3.40
2018-12-11T03:16:54.489Z,3.40
2018-12-11T03:19:22.708Z,3.50
2018-12-11T03:21:50.959Z,3.30
2018-12-11T03:24:19.265Z,3.30
2018-12-11T03:26:47.504Z,2.90
2018-12-11T03:29:15.770Z,3.00
2018-12-11T03:31:46.073Z,2.90
2018-12-11T03:34:14.338Z,3.10
2018-12-11T03:36:42.560Z,2.90
2018-12-11T03:39:10.841Z,2.90
2018-12-11T03:41:39.090Z,3.10
2018-12-11T03:44:07.331Z,3.10
2018-12-11T03:46:37.674Z,3.20
2018-12-11T03:49:05.954Z,3.10
2018-12-11T03:51:34.202Z,3.10
2018-12-11T03:54:02.432Z,2.90
2018-12-11T03:56:30.674Z,2.90
2018-12-11T03:58:58.970Z,2.90
2018-12-11T04:01:27.265Z,3.10
2018-12-11T04:03:55.516Z,2.90
2018-12-11T04:06:23.766Z,2.90
2018-12-11T04:08:52.003Z,3.40
2018-12-11T04:11:21.258Z,3.00
2018-12-11T04:13:49.477Z,3.00
2018-12-11T04:16:17.784Z,3.10
2018-12-11T04:18:46.002Z,3.10
2018-12-11T04:21:14.218Z,3.10
2018-12-11T04:23:42.496Z,3.10
2018-12-11T04:26:10.795Z,3.20
2018-12-11T04:28:40.174Z,3.10
2018-12-11T04:31:08.420Z,3.00
2018-12-11T04:33:36.637Z,3.00
2018-12-11T04:36:05.942Z,3.10
2018-12-11T04:38:34.218Z,3.10
2018-12-11T04:41:02.504Z,3.00
2018-12-11T04:43:30.722Z,2.70
2018-12-11T04:45:59.025Z,2.70
2018-12-11T04:48:28.332Z,2.70
2018-12-11T04:50:56.541Z,2.60
2018-12-11T04:53:24.819Z,2.60
2018-12-11T04:55:53.033Z,2.60
2018-12-11T04:58:21.340Z,2.60
2018-12-11T05:00:49.559Z,2.60
2018-12-11T05:03:19.830Z,2.60
2018-12-11T05:05:48.082Z,2.60
2018-12-11T05:15:44.426Z,2.50
2018-12-11T05:18:12.670Z,2.60
2018-12-11T05:20:44.539Z,2.80
2018-12-11T05:23:12.766Z,2.70
2018-12-11T05:25:42.147Z,2.70
2018-12-11T05:28:11.416Z,2.80
2018-12-11T05:30:39.619Z,2.90
2018-12-11T05:33:08.857Z,2.90
2018-12-11T05:35:42.578Z,3.00
2018-12-11T05:38:10.806Z,3.10
2018-12-11T05:40:40.852Z,3.10
2018-12-11T05:43:09.121Z,3.10
2018-12-11T05:45:37.424Z,3.00
2018-12-11T05:48:07.669Z,2.90
2018-12-11T05:50:35.929Z,3.00
2018-12-11T05:53:04.170Z,2.90
2018-12-11T05:55:32.471Z,2.90
2018-12-11T05:58:00.688Z,2.80
2018-12-11T06:00:28.896Z,2.80
2018-12-11T06:02:57.227Z,3.10
2018-12-11T06:05:25.433Z,3.10
2018-12-11T06:07:53.637Z,3.10
2018-12-11T06:10:21.836Z,3.40
2018-12-11T06:12:50.074Z,3.00
2018-12-11T06:17:46.308Z,2.90
2018-12-11T06:20:14.690Z,3.20
2018-12-11T06:25:10.922Z,2.90
2018-12-11T06:27:40.187Z,2.90
2018-12-11T06:30:09.618Z,3.00
2018-12-11T06:32:37.854Z,3.00
2018-12-11T06:35:06.119Z,3.00
2018-12-11T06:37:34.356Z,2.70
2018-12-11T06:40:02.612Z,2.70
2018-12-11T06:42:31.877Z,2.70
2018-12-11T06:45:00.119Z,2.50
2018-12-11T06:47:28.424Z,2.50
2018-12-11T06:49:56.662Z,2.60
2018-12-11T06:52:24.902Z,2.70
2018-12-11T06:54:53.140Z,2.70
2018-12-11T06:57:26.674Z,2.70
2018-12-11T06:59:54.918Z,2.60
2018-12-11T07:02:25.156Z,2.50
2018-12-11T07:04:53.444Z,2.70
2018-12-11T07:07:23.749Z,2.50
2018-12-11T07:09:52.072Z,2.60
2018-12-11T07:12:20.296Z,2.60
2018-12-11T07:14:48.520Z,2.60
2018-12-11T07:17:16.731Z,2.90
2018-12-11T07:19:51.085Z,2.40
2018-12-11T07:22:20.354Z,2.50
2018-12-11T07:24:48.556Z,2.60
2018-12-11T07:29:45.860Z,2.70
2018-12-11T07:32:18.976Z,2.90
2018-12-11T07:37:15.168Z,2.80
2018-12-11T07:39:43.372Z,3.00
2018-12-11T07:42:12.217Z,3.00
2018-12-11T07:44:40.459Z,3.00
2018-12-11T07:47:08.668Z,2.90
2018-12-11T07:49:37.015Z,2.80
2018-12-11T07:52:05.219Z,2.60
2018-12-11T07:54:33.425Z,2.60
2018-12-11T07:57:01.617Z,2.50
2018-12-11T07:59:30.837Z,2.50
2018-12-11T08:01:59.037Z,2.50
2018-12-11T08:04:27.302Z,2.40
2018-12-11T08:06:55.505Z,2.30
2018-12-11T08:09:30.471Z,2.40
2018-12-11T08:11:58.706Z,2.40
2018-12-11T08:14:26.927Z,2.30
2018-12-11T08:16:55.158Z,2.40
2018-12-11T08:19:23.605Z,2.40
2018-12-11T08:21:51.832Z,2.50
2018-12-11T08:24:20.063Z,2.50
2018-12-11T08:26:48.298Z,2.50
2018-12-11T08:29:16.541Z,1.80
2018-12-11T08:31:45.056Z,2.00
2018-12-11T08:41:48.999Z,2.40
2018-12-11T08:44:17.233Z,2.40
2018-12-11T08:46:47.609Z,2.30
2018-12-11T08:51:43.944Z,2.40
2018-12-11T08:54:12.222Z,2.50
2018-12-11T08:56:40.508Z,2.60
2018-12-11T08:59:09.761Z,2.60
2018-12-11T09:01:37.997Z,2.60
2018-12-11T09:04:06.248Z,2.50
2018-12-11T09:06:34.510Z,2.30
2018-12-11T09:09:02.847Z,2.30
2018-12-11T09:11:31.117Z,2.30
2018-12-11T09:13:59.428Z,2.50
2018-12-11T09:16:27.676Z,2.60
2018-12-11T09:18:55.912Z,2.60
2018-12-11T09:21:25.193Z,2.60
2018-12-11T09:23:54.359Z,2.70
2018-12-11T09:26:28.308Z,2.70
2018-12-11T09:28:56.713Z,2.70
2018-12-11T09:31:25.945Z,2.70
2018-12-11T09:33:54.180Z,2.60
2018-12-11T09:36:22.400Z,2.70
2018-12-11T09:38:50.646Z,2.60
2018-12-11T09:41:18.905Z,2.70
2018-12-11T09:43:47.149Z,2.90
2018-12-11T09:46:15.373Z,3.20
2018-12-11T09:51:17.640Z,3.30
2018-12-11T09:53:41.825Z,3.10
2018-12-11T09:56:10.083Z,3.10
2018-12-11T09:58:38.303Z,3.10
2018-12-11T10:01:06.530Z,3.10
2018-12-11T10:03:34.812Z,3.00
2018-12-11T10:06:03.127Z,2.80
2018-12-11T10:08:31.425Z,2.70
2018-12-11T10:10:59.655Z,2.60
2018-12-11T10:13:27.886Z,2.60
2018-12-11T10:15:56.149Z,2.60
2018-12-11T10:18:24.439Z,2.50
2018-12-11T10:20:52.695Z,2.60
2018-12-11T10:23:21.316Z,2.70
2018-12-11T10:25:49.532Z,2.60
2018-12-11T10:28:17.756Z,2.40
2018-12-11T10:30:48.021Z,2.40
2018-12-11T10:33:17.099Z,2.40
2018-12-11T10:35:45.303Z,2.30
2018-12-11T10:38:13.547Z,2.40
2018-12-11T10:40:45.131Z,2.70
2018-12-11T10:43:13.364Z,3.50
2018-12-11T10:45:41.604Z,4.10
2018-12-11T10:55:36.012Z,3.60
2018-12-11T10:58:04.345Z,3.70
2018-12-11T11:00:38.086Z,3.70
2018-12-11T11:03:08.019Z,3.80
2018-12-11T11:05:36.253Z,3.40
2018-12-11T11:08:04.483Z,3.10
2018-12-11T11:10:32.732Z,3.00
2018-12-11T11:13:01.072Z,2.90
2018-12-11T11:15:30.390Z,3.00
2018-12-11T11:17:58.693Z,3.00
2018-12-11T11:20:27.009Z,3.20
2018-12-11T11:22:55.333Z,3.20
2018-12-11T11:25:23.585Z,3.30
2018-12-11T11:27:51.893Z,3.40
2018-12-11T11:30:20.115Z,3.60
2018-12-11T11:32:48.343Z,3.90
2018-12-11T11:35:16.585Z,4.00
2018-12-11T11:37:44.922Z,4.10
2018-12-11T11:40:13.152Z,4.20
2018-12-11T11:42:42.488Z,4.30
2018-12-11T11:45:11.825Z,4.40
2018-12-11T11:47:40.045Z,4.10
2018-12-11T12:00:03.828Z,4.00
2018-12-11T12:02:33.518Z,3.50
2018-12-11T12:05:01.968Z,3.00
2018-12-11T12:07:30.243Z,3.00
2018-12-11T12:09:58.468Z,3.10
2018-12-11T12:12:26.693Z,2.90
2018-12-11T12:14:54.919Z,3.00
2018-12-11T12:17:23.122Z,3.10
2018-12-11T12:19:51.329Z,3.30
2018-12-11T12:22:19.624Z,3.30
2018-12-11T12:24:47.833Z,3.00
2018-12-11T12:27:16.034Z,2.80
2018-12-11T12:29:44.246Z,2.90
2018-12-11T12:32:12.453Z,3.10
2018-12-11T12:34:40.655Z,3.20
2018-12-11T12:37:09.032Z,3.00
2018-12-11T12:39:37.242Z,3.10
2018-12-11T12:42:05.462Z,3.20
2018-12-11T12:44:33.690Z,3.50
2018-12-11T12:47:01.927Z,3.50
2018-12-11T12:49:30.145Z,3.50
2018-12-11T12:59:22.251Z,3.70
2018-12-11T13:01:50.459Z,3.70
2018-12-11T13:04:18.736Z,3.80
2018-12-11T13:06:47.238Z,3.50
2018-12-11T13:09:15.430Z,3.70
2018-12-11T13:11:43.643Z,3.80
2018-12-11T13:14:11.848Z,3.80
2018-12-11T13:16:40.037Z,3.80
2018-12-11T13:19:08.234Z,3.70
2018-12-11T13:21:38.552Z,3.70
2018-12-11T13:24:06.825Z,3.80
2018-12-11T13:26:35.039Z,3.90
2018-12-11T13:30:27.764Z,4.00
2018-12-11T13:32:56.093Z,3.90
2018-12-11T13:35:24.296Z,3.80
2018-12-11T13:37:52.552Z,4.10
2018-12-11T13:40:20.844Z,3.90
2018-12-11T13:42:49.131Z,3.90
2018-12-11T13:45:17.450Z,3.80
2018-12-11T13:47:46.692Z,3.80
2018-12-11T13:50:14.886Z,3.50
2018-12-11T13:52:43.129Z,3.60
2018-12-11T13:55:11.354Z,3.80
2018-12-11T13:57:39.558Z,3.80
2018-12-11T14:00:07.789Z,3.90
2018-12-11T14:02:36.090Z,4.10
2018-12-11T14:05:04.606Z,4.20
2018-12-11T14:07:33.822Z,4.20
2018-12-11T14:10:02.048Z,4.10
2018-12-11T14:12:30.256Z,3.90
2018-12-11T14:15:00.516Z,4.00
2018-12-11T14:17:28.721Z,3.90
2018-12-11T14:19:56.938Z,4.00
2018-12-11T14:22:25.230Z,3.90
2018-12-11T14:24:55.456Z,3.90
2018-12-11T14:27:24.526Z,3.80
2018-12-11T14:29:52.748Z,3.80
2018-12-11T14:32:21.011Z,3.70
2018-12-11T14:37:17.196Z,3.60
2018-12-11T14:39:45.473Z,3.60
2018-12-11T14:42:14.249Z,3.80
2018-12-11T14:44:42.484Z,3.80
2018-12-11T14:47:10.698Z,3.70
2018-12-11T14:49:38.905Z,3.70
2018-12-11T14:52:07.120Z,3.80
2018-12-11T14:54:35.328Z,3.70
2018-12-11T14:57:03.538Z,3.80
2018-12-11T14:59:31.728Z,3.60
2018-12-11T15:02:01.020Z,3.70
2018-12-11T15:04:29.218Z,3.70
2018-12-11T15:06:57.496Z,3.70
2018-12-11T15:09:32.229Z,3.70
2018-12-11T15:12:00.412Z,3.60
2018-12-11T15:14:28.614Z,3.50
2018-12-11T15:16:56.974Z,3.30
2018-12-11T15:19:25.192Z,3.40
2018-12-11T15:21:53.443Z,3.50
2018-12-11T15:24:21.740Z,3.60
2018-12-11T15:26:50.035Z,3.50
2018-12-11T15:29:18.235Z,3.60
2018-12-11T15:31:51.720Z,3.40
2018-12-11T15:34:20.018Z,3.60
2018-12-11T15:36:48.216Z,3.70
2018-12-11T15:39:16.545Z,3.60
2018-12-11T15:44:12.716Z,3.70
2018-12-11T15:46:41.276Z,3.80
2018-12-11T15:49:09.546Z,3.80
2018-12-11T15:51:37.972Z,3.70
2018-12-11T15:54:06.237Z,3.70
2018-12-11T15:56:34.523Z,3.70
2018-12-11T15:59:02.757Z,3.70
2018-12-11T16:01:30.976Z,3.70
2018-12-11T16:03:59.275Z,3.70
2018-12-11T16:06:30.568Z,3.80
2018-12-11T16:08:59.560Z,3.80
2018-12-11T16:11:27.752Z,3.70
2018-12-11T16:13:55.974Z,3.70
2018-12-11T16:16:24.184Z,3.70
2018-12-11T16:18:52.385Z,3.90
2018-12-11T16:22:48.808Z,4.00
2018-12-11T16:25:19.595Z,4.00
2018-12-11T16:27:47.791Z,3.80
2018-12-11T16:30:16.202Z,4.20
2018-12-11T16:32:44.656Z,4.30
2018-12-11T16:35:12.889Z,4.40
2018-12-11T16:37:41.241Z,4.30
2018-12-11T16:40:09.445Z,4.20
2018-12-11T16:42:37.661Z,4.20
2018-12-11T16:45:06.236Z,4.10
2018-12-11T16:47:34.428Z,4.00
2018-12-11T16:50:02.637Z,3.90
2018-12-11T16:52:30.950Z,3.80
2018-12-11T16:54:59.200Z,3.70
2018-12-11T16:57:27.401Z,3.60
2018-12-11T16:59:58.953Z,3.60
2018-12-11T17:02:27.206Z,3.50
2018-12-11T17:04:55.420Z,3.50
2018-12-11T17:07:24.975Z,3.40
2018-12-11T17:09:53.525Z,3.50
2018-12-11T17:12:22.215Z,3.20
2018-12-11T17:14:53.647Z,3.40
2018-12-11T17:17:22.422Z,3.40
2018-12-11T17:19:51.753Z,3.30
2018-12-11T17:29:45.968Z,3.40
2018-12-11T17:32:14.176Z,3.40
2018-12-11T17:34:42.373Z,3.50
2018-12-11T17:37:11.664Z,3.50
2018-12-11T17:39:39.862Z,3.50
2018-12-11T17:42:08.115Z,3.50
2018-12-11T17:44:36.312Z,3.50
2018-12-11T17:47:04.528Z,3.50
2018-12-11T17:49:32.733Z,3.50
2018-12-11T17:52:00.965Z,3.60
2018-12-11T17:54:29.228Z,3.60
2018-12-11T17:56:58.589Z,3.60
2018-12-11T17:59:26.796Z,3.50
2018-12-11T18:01:58.460Z,3.50
2018-12-11T18:04:26.721Z,3.50
2018-12-11T18:06:54.922Z,3.50
2018-12-11T18:09:23.168Z,3.50
2018-12-11T18:11:51.379Z,3.60
2018-12-11T18:14:19.624Z,3.50
2018-12-11T18:16:47.885Z,3.50
2018-12-11T18:19:16.110Z,3.40
2018-12-11T18:21:49.459Z,3.40
2018-12-11T18:24:17.703Z,3.40
2018-12-11T18:26:45.964Z,3.40
2018-12-11T18:29:15.231Z,3.40
2018-12-11T18:31:43.417Z,3.90
2018-12-11T18:34:11.713Z,3.20
2018-12-11T18:36:40.311Z,3.40
2018-12-11T18:39:08.728Z,3.50
2018-12-11T18:41:37.021Z,3.50
2018-12-11T18:44:05.231Z,3.50
2018-12-11T18:46:33.492Z,3.50
2018-12-11T18:49:06.655Z,3.60
2018-12-11T18:51:34.859Z,3.60
2018-12-11T18:54:03.069Z,3.60
2018-12-11T18:56:31.316Z,3.70
2018-12-11T18:58:59.577Z,3.60
2018-12-11T19:01:28.873Z,3.60
2018-12-11T19:03:57.089Z,3.70
2018-12-11T19:06:25.457Z,3.70
2018-12-11T19:08:53.637Z,3.70
2018-12-11T19:11:21.914Z,3.70
2018-12-11T19:13:50.119Z,3.60
2018-12-11T19:16:18.441Z,3.50
2018-12-11T19:18:46.730Z,3.50
2018-12-11T19:21:17.095Z,3.40
2018-12-11T19:24:06.140Z,3.40
2018-12-11T19:26:34.349Z,3.50
2018-12-11T19:29:02.646Z,3.50
2018-12-11T19:31:30.859Z,3.50
2018-12-11T19:34:03.056Z,3.50
2018-12-11T19:36:34.717Z,3.50
2018-12-11T19:39:04.614Z,3.50
2018-12-11T19:41:32.826Z,2.60
2018-12-11T19:44:01.118Z,3.60
2018-12-11T19:51:25.413Z,3.50
2018-12-11T19:53:53.640Z,3.50
2018-12-11T19:56:21.941Z,3.50
2018-12-11T20:01:18.223Z,3.60
2018-12-11T20:03:46.528Z,3.60
2018-12-11T20:06:15.788Z,3.60
2018-12-11T20:08:44.067Z,3.60
2018-12-11T20:11:12.337Z,3.50
2018-12-11T20:13:40.588Z,3.60
2018-12-11T20:16:09.495Z,3.60
2018-12-11T20:18:37.866Z,3.50
2018-12-11T20:21:06.193Z,3.40
2018-12-11T20:23:34.471Z,3.40
2018-12-11T20:26:02.727Z,3.40
2018-12-11T20:28:30.955Z,3.30
2018-12-11T20:30:59.262Z,2.70
2018-12-11T20:33:27.560Z,3.30
2018-12-11T20:35:55.824Z,3.30
2018-12-11T20:43:20.228Z,3.20
2018-12-11T20:45:48.953Z,3.20
2018-12-11T20:48:20.037Z,3.20
2018-12-11T20:50:48.407Z,3.20
2018-12-11T20:53:16.708Z,3.20
2018-12-11T20:55:45.017Z,3.20
2018-12-11T20:58:13.269Z,3.20
2018-12-11T21:00:41.558Z,3.20
2018-12-11T21:03:09.876Z,3.20
2018-12-11T21:05:40.191Z,3.20
2018-12-11T21:08:12.658Z,3.20
2018-12-11T21:10:42.996Z,3.20
2018-12-11T21:13:11.508Z,3.30
2018-12-11T21:15:39.759Z,3.30
2018-12-11T21:18:08.046Z,3.20
2018-12-11T21:20:36.273Z,3.30
2018-12-11T21:23:05.634Z,3.30
2018-12-11T21:25:34.973Z,3.30
2018-12-11T21:28:03.292Z,3.30
2018-12-11T21:30:31.532Z,3.30
2018-12-11T21:33:00.809Z,3.30
2018-12-11T21:35:29.118Z,3.20
2018-12-11T21:37:57.404Z,3.20
2018-12-11T21:40:28.925Z,3.20
2018-12-11T21:42:57.213Z,2.90
2018-12-11T21:47:55.517Z,3.30
2018-12-11T21:55:19.980Z,3.20
2018-12-11T21:57:48.236Z,3.30
2018-12-11T22:00:16.522Z,3.30
2018-12-11T22:02:46.858Z,3.20
2018-12-11T22:05:15.172Z,3.20
2018-12-11T22:07:43.496Z,3.20
2018-12-11T22:10:11.724Z,3.20
2018-12-11T22:12:40.045Z,3.20
2018-12-11T22:15:10.360Z,3.20
2018-12-11T22:17:38.702Z,3.20
2018-12-11T22:20:06.976Z,3.20
2018-12-11T22:22:35.281Z,3.10
2018-12-11T22:25:03.517Z,3.00
2018-12-11T22:27:36.631Z,3.00
2018-12-11T22:30:05.284Z,3.00
2018-12-11T22:32:33.506Z,3.00
2018-12-11T22:35:01.820Z,3.00
2018-12-11T22:37:31.197Z,3.00
2018-12-11T22:39:59.440Z,3.00
2018-12-11T22:42:27.743Z,3.00
2018-12-11T22:44:55.980Z,2.90
2018-12-11T22:47:24.452Z,3.40
2018-12-11T22:49:52.781Z,2.90
2018-12-11T22:52:28.332Z,2.90
2018-12-11T22:54:56.552Z,2.90
2018-12-11T22:59:59.387Z,2.70
2018-12-11T23:02:27.628Z,2.90
2018-12-11T23:04:55.891Z,2.80
2018-12-11T23:07:24.249Z,2.80
2018-12-11T23:09:52.613Z,2.70
2018-12-11T23:12:21.844Z,2.70
2018-12-11T23:14:52.197Z,2.70
2018-12-11T23:17:20.387Z,2.70
2018-12-11T23:19:50.732Z,2.60
2018-12-11T23:22:19.015Z,2.60
2018-12-11T23:24:47.320Z,2.60
2018-12-11T23:27:15.589Z,2.60
2018-12-11T23:29:47.156Z,2.60
2018-12-11T23:32:15.389Z,2.60
2018-12-11T23:34:45.667Z,2.60
2018-12-11T23:37:13.948Z,2.70
2018-12-11T23:39:42.188Z,2.80
2018-12-11T23:42:10.464Z,2.90
2018-12-11T23:44:38.725Z,2.80
2018-12-11T23:47:06.899Z,2.90
2018-12-11T23:49:36.148Z,2.90
2018-12-11T23:52:04.380Z,3.00
2018-12-11T23:54:32.657Z,3.00
2018-12-11T23:57:00.847Z,2.60
2018-12-11T23:59:29.415Z,2.70
